sensor_id;sensor_type;location;lat;lon;timestamp;pressure;altitude;pressure_sealevel;temperature;humidity
6393;BME280;3229;42.674;23.282;2023-06-22T00:01:48;95068.84;;;19.79;82.90
6393;BME280;3229;42.674;23.282;2023-06-22T00:04:15;95074.25;;;19.77;83.01
6393;BME280;3229;42.674;23.282;2023-06-22T00:06:42;95070.81;;;19.77;83.24
6393;BME280;3229;42.674;23.282;2023-06-22T00:09:09;95074.78;;;19.73;83.40
6393;BME280;3229;42.674;23.282;2023-06-22T00:11:36;94908.66;;;18.66;83.55
6393;BME280;3229;42.674;23.282;2023-06-22T00:14:04;95072.13;;;19.66;83.96
6393;BME280;3229;42.674;23.282;2023-06-22T00:16:31;95071.88;;;19.61;84.23
6393;BME280;3229;42.674;23.282;2023-06-22T00:18:58;95065.88;;;19.61;84.58
6393;BME280;3229;42.674;23.282;2023-06-22T00:21:27;95061.63;;;19.60;84.54
6393;BME280;3229;42.674;23.282;2023-06-22T00:23:54;95056.84;;;19.57;84.52
6393;BME280;3229;42.674;23.282;2023-06-22T00:26:23;95044.81;;;19.55;84.29
6393;BME280;3229;42.674;23.282;2023-06-22T00:28:50;95046.00;;;19.53;84.22
6393;BME280;3229;42.674;23.282;2023-06-22T00:31:18;95041.53;;;19.47;84.21
6393;BME280;3229;42.674;23.282;2023-06-22T00:33:45;95046.19;;;19.51;84.27
6393;BME280;3229;42.674;23.282;2023-06-22T00:36:12;95054.78;;;19.52;83.82
6393;BME280;3229;42.674;23.282;2023-06-22T00:38:41;95037.72;;;19.43;84.44
6393;BME280;3229;42.674;23.282;2023-06-22T00:41:08;95040.13;;;19.44;84.62
6393;BME280;3229;42.674;23.282;2023-06-22T00:43:35;95045.69;;;19.41;84.53
6393;BME280;3229;42.674;23.282;2023-06-22T00:46:02;95043.44;;;19.38;84.61
6393;BME280;3229;42.674;23.282;2023-06-22T00:48:30;95042.47;;;19.39;84.92
6393;BME280;3229;42.674;23.282;2023-06-22T00:50:57;95046.03;;;19.38;85.38
6393;BME280;3229;42.674;23.282;2023-06-22T00:53:24;95040.25;;;19.36;85.59
6393;BME280;3229;42.674;23.282;2023-06-22T00:55:51;95030.97;;;19.27;85.27
6393;BME280;3229;42.674;23.282;2023-06-22T00:58:18;95048.22;;;19.35;85.56
6393;BME280;3229;42.674;23.282;2023-06-22T01:00:47;95049.38;;;19.32;85.64
6393;BME280;3229;42.674;23.282;2023-06-22T01:03:14;95059.16;;;19.30;85.63
6393;BME280;3229;42.674;23.282;2023-06-22T01:05:44;95065.13;;;19.30;85.63
6393;BME280;3229;42.674;23.282;2023-06-22T01:08:23;95063.50;;;19.29;85.56
6393;BME280;3229;42.674;23.282;2023-06-22T01:10:57;95058.25;;;19.23;85.88
6393;BME280;3229;42.674;23.282;2023-06-22T01:13:37;95066.84;;;19.23;86.24
6393;BME280;3229;42.674;23.282;2023-06-22T01:16:12;95063.00;;;19.19;86.42
6393;BME280;3229;42.674;23.282;2023-06-22T01:18:43;95055.75;;;19.15;86.92
6393;BME280;3229;42.674;23.282;2023-06-22T01:21:15;95058.34;;;19.15;87.44
6393;BME280;3229;42.674;23.282;2023-06-22T01:23:54;95057.91;;;19.11;87.58
6393;BME280;3229;42.674;23.282;2023-06-22T01:26:30;95057.72;;;19.13;87.15
6393;BME280;3229;42.674;23.282;2023-06-22T01:29:05;95052.47;;;19.06;87.39
6393;BME280;3229;42.674;23.282;2023-06-22T01:31:32;95068.81;;;19.07;87.34
6393;BME280;3229;42.674;23.282;2023-06-22T01:34:02;95070.81;;;19.04;87.62
6393;BME280;3229;42.674;23.282;2023-06-22T01:36:30;95074.19;;;19.05;87.25
6393;BME280;3229;42.674;23.282;2023-06-22T01:38:58;95073.22;;;19.06;87.54
6393;BME280;3229;42.674;23.282;2023-06-22T01:41:26;95072.22;;;19.07;87.50
6393;BME280;3229;42.674;23.282;2023-06-22T01:43:55;95067.75;;;19.01;87.87
6393;BME280;3229;42.674;23.282;2023-06-22T01:46:24;95035.78;;;18.79;88.23
6393;BME280;3229;42.674;23.282;2023-06-22T01:48:52;95077.50;;;18.99;88.29
6393;BME280;3229;42.674;23.282;2023-06-22T01:51:20;95051.59;;;18.84;88.58
6393;BME280;3229;42.674;23.282;2023-06-22T01:53:47;95082.59;;;18.92;88.77
6393;BME280;3229;42.674;23.282;2023-06-22T01:56:16;95075.97;;;18.90;89.07
6393;BME280;3229;42.674;23.282;2023-06-22T01:58:48;95080.38;;;18.89;89.31
6393;BME280;3229;42.674;23.282;2023-06-22T02:01:20;95082.16;;;18.89;89.25
6393;BME280;3229;42.674;23.282;2023-06-22T02:04:02;95079.91;;;18.86;89.38
6393;BME280;3229;42.674;23.282;2023-06-22T02:06:33;95068.56;;;18.72;89.35
6393;BME280;3229;42.674;23.282;2023-06-22T02:09:07;95097.59;;;18.82;89.64
6393;BME280;3229;42.674;23.282;2023-06-22T02:11:36;95079.13;;;18.70;89.78
6393;BME280;3229;42.674;23.282;2023-06-22T02:14:04;95086.19;;;18.76;89.86
6393;BME280;3229;42.674;23.282;2023-06-22T02:16:32;95088.22;;;18.81;90.01
6393;BME280;3229;42.674;23.282;2023-06-22T02:19:01;95057.59;;;18.70;90.36
6393;BME280;3229;42.674;23.282;2023-06-22T02:21:28;95071.69;;;18.82;90.38
6393;BME280;3229;42.674;23.282;2023-06-22T02:23:55;95076.06;;;18.82;89.93
6393;BME280;3229;42.674;23.282;2023-06-22T02:26:22;95082.50;;;18.86;89.37
6393;BME280;3229;42.674;23.282;2023-06-22T02:28:50;95077.88;;;18.81;88.97
6393;BME280;3229;42.674;23.282;2023-06-22T02:31:17;95068.38;;;18.73;88.74
6393;BME280;3229;42.674;23.282;2023-06-22T02:33:44;95061.19;;;18.61;88.60
6393;BME280;3229;42.674;23.282;2023-06-22T02:36:17;95077.66;;;18.68;88.48
6393;BME280;3229;42.674;23.282;2023-06-22T02:38:50;95079.44;;;18.67;87.98
6393;BME280;3229;42.674;23.282;2023-06-22T02:41:17;95075.25;;;18.66;87.44
6393;BME280;3229;42.674;23.282;2023-06-22T02:43:44;95082.56;;;18.63;87.56
6393;BME280;3229;42.674;23.282;2023-06-22T02:46:12;95063.44;;;18.49;87.83
6393;BME280;3229;42.674;23.282;2023-06-22T02:48:39;95059.88;;;18.50;88.16
6393;BME280;3229;42.674;23.282;2023-06-22T02:51:06;95067.91;;;18.55;88.33
6393;BME280;3229;42.674;23.282;2023-06-22T02:53:35;95075.50;;;18.56;88.41
6393;BME280;3229;42.674;23.282;2023-06-22T02:56:02;95077.91;;;18.58;88.27
6393;BME280;3229;42.674;23.282;2023-06-22T02:58:31;95077.91;;;18.58;88.55
6393;BME280;3229;42.674;23.282;2023-06-22T03:01:04;95082.13;;;18.59;88.50
6393;BME280;3229;42.674;23.282;2023-06-22T03:03:31;95075.41;;;18.65;88.63
6393;BME280;3229;42.674;23.282;2023-06-22T03:06:01;95074.59;;;18.64;89.32
6393;BME280;3229;42.674;23.282;2023-06-22T03:08:28;95082.22;;;18.66;89.66
6393;BME280;3229;42.674;23.282;2023-06-22T03:11:03;95082.53;;;18.71;89.77
6393;BME280;3229;42.674;23.282;2023-06-22T03:13:30;95087.34;;;18.74;89.96
6393;BME280;3229;42.674;23.282;2023-06-22T03:15:58;95097.00;;;18.80;89.93
6393;BME280;3229;42.674;23.282;2023-06-22T03:18:28;95095.00;;;18.82;89.83
6393;BME280;3229;42.674;23.282;2023-06-22T03:20:55;95108.69;;;18.91;89.81
6393;BME280;3229;42.674;23.282;2023-06-22T03:23:21;95110.59;;;18.97;89.66
6393;BME280;3229;42.674;23.282;2023-06-22T03:25:48;95110.22;;;19.00;89.80
6393;BME280;3229;42.674;23.282;2023-06-22T03:28:20;95111.91;;;19.08;89.46
6393;BME280;3229;42.674;23.282;2023-06-22T03:30:52;95110.56;;;19.12;89.40
6393;BME280;3229;42.674;23.282;2023-06-22T03:33:19;95118.88;;;19.22;89.06
6393;BME280;3229;42.674;23.282;2023-06-22T03:35:45;95113.97;;;19.27;88.38
6393;BME280;3229;42.674;23.282;2023-06-22T03:38:13;95118.59;;;19.32;87.81
6393;BME280;3229;42.674;23.282;2023-06-22T03:40:39;95127.09;;;19.40;87.62
6393;BME280;3229;42.674;23.282;2023-06-22T03:43:06;95103.50;;;19.35;87.68
6393;BME280;3229;42.674;23.282;2023-06-22T03:45:34;95132.88;;;19.57;87.48
6393;BME280;3229;42.674;23.282;2023-06-22T03:48:01;95134.47;;;19.58;87.63
6393;BME280;3229;42.674;23.282;2023-06-22T03:50:28;95136.19;;;19.66;87.49
6393;BME280;3229;42.674;23.282;2023-06-22T03:52:55;95149.63;;;19.69;87.44
6393;BME280;3229;42.674;23.282;2023-06-22T03:55:22;95150.13;;;19.79;87.41
6393;BME280;3229;42.674;23.282;2023-06-22T03:57:49;95136.59;;;19.84;87.22
6393;BME280;3229;42.674;23.282;2023-06-22T04:00:16;95134.00;;;19.84;87.11
6393;BME280;3229;42.674;23.282;2023-06-22T04:02:44;95138.38;;;19.84;87.41
6393;BME280;3229;42.674;23.282;2023-06-22T04:05:10;95146.16;;;19.84;87.73
6393;BME280;3229;42.674;23.282;2023-06-22T04:07:37;95136.84;;;19.89;87.43
6393;BME280;3229;42.674;23.282;2023-06-22T04:10:05;95127.44;;;19.88;87.60
6393;BME280;3229;42.674;23.282;2023-06-22T04:12:32;95123.28;;;19.94;87.43
6393;BME280;3229;42.674;23.282;2023-06-22T04:14:59;95123.38;;;20.00;87.04
6393;BME280;3229;42.674;23.282;2023-06-22T04:17:29;95115.22;;;20.03;86.84
6393;BME280;3229;42.674;23.282;2023-06-22T04:19:58;95105.88;;;20.09;86.22
6393;BME280;3229;42.674;23.282;2023-06-22T04:22:25;95112.44;;;20.26;85.93
6393;BME280;3229;42.674;23.282;2023-06-22T04:24:51;95102.34;;;20.38;85.24
6393;BME280;3229;42.674;23.282;2023-06-22T04:27:18;95100.66;;;20.52;84.43
6393;BME280;3229;42.674;23.282;2023-06-22T04:29:45;95105.31;;;20.63;83.72
6393;BME280;3229;42.674;23.282;2023-06-22T04:32:14;95107.03;;;20.77;82.53
6393;BME280;3229;42.674;23.282;2023-06-22T04:34:41;95112.09;;;20.86;81.75
6393;BME280;3229;42.674;23.282;2023-06-22T04:37:09;95116.75;;;20.97;81.29
6393;BME280;3229;42.674;23.282;2023-06-22T04:39:41;95105.19;;;21.06;81.38
6393;BME280;3229;42.674;23.282;2023-06-22T04:42:08;95086.16;;;20.99;81.42
6393;BME280;3229;42.674;23.282;2023-06-22T04:44:34;95111.06;;;21.21;80.55
6393;BME280;3229;42.674;23.282;2023-06-22T04:47:01;95119.47;;;21.23;80.60
6393;BME280;3229;42.674;23.282;2023-06-22T04:49:30;95116.50;;;21.26;81.01
6393;BME280;3229;42.674;23.282;2023-06-22T04:52:00;95121.31;;;21.29;80.53
6393;BME280;3229;42.674;23.282;2023-06-22T04:54:29;95121.13;;;21.31;80.74
6393;BME280;3229;42.674;23.282;2023-06-22T04:56:58;95121.38;;;21.36;80.84
6393;BME280;3229;42.674;23.282;2023-06-22T04:59:26;95130.63;;;21.45;80.70
6393;BME280;3229;42.674;23.282;2023-06-22T05:01:55;95135.06;;;21.51;80.54
6393;BME280;3229;42.674;23.282;2023-06-22T05:04:22;95132.47;;;21.58;79.88
6393;BME280;3229;42.674;23.282;2023-06-22T05:06:50;95129.28;;;21.63;78.43
6393;BME280;3229;42.674;23.282;2023-06-22T05:09:17;95128.09;;;21.65;78.09
6393;BME280;3229;42.674;23.282;2023-06-22T05:11:45;95135.34;;;21.76;77.90
6393;BME280;3229;42.674;23.282;2023-06-22T05:14:12;95139.41;;;21.99;76.95
6393;BME280;3229;42.674;23.282;2023-06-22T05:16:40;95133.66;;;22.23;75.42
6393;BME280;3229;42.674;23.282;2023-06-22T05:19:07;95132.06;;;22.49;74.27
6393;BME280;3229;42.674;23.282;2023-06-22T05:21:34;95135.88;;;22.73;73.28
6393;BME280;3229;42.674;23.282;2023-06-22T05:24:01;95115.41;;;22.90;71.59
6393;BME280;3229;42.674;23.282;2023-06-22T05:26:29;95138.22;;;23.21;71.16
6393;BME280;3229;42.674;23.282;2023-06-22T05:28:58;95126.72;;;23.42;69.78
6393;BME280;3229;42.674;23.282;2023-06-22T05:31:26;95125.22;;;23.72;68.98
6393;BME280;3229;42.674;23.282;2023-06-22T05:33:54;95144.28;;;24.11;67.74
6393;BME280;3229;42.674;23.282;2023-06-22T05:36:21;95145.53;;;24.40;66.88
6393;BME280;3229;42.674;23.282;2023-06-22T05:38:50;95134.53;;;24.57;66.33
6393;BME280;3229;42.674;23.282;2023-06-22T05:41:18;95154.59;;;24.88;65.27
6393;BME280;3229;42.674;23.282;2023-06-22T05:43:45;95155.84;;;25.28;64.61
6393;BME280;3229;42.674;23.282;2023-06-22T05:46:13;95157.44;;;25.85;63.10
6393;BME280;3229;42.674;23.282;2023-06-22T05:48:40;95165.66;;;26.18;61.78
6393;BME280;3229;42.674;23.282;2023-06-22T05:51:07;95171.25;;;26.52;61.16
6393;BME280;3229;42.674;23.282;2023-06-22T05:53:35;95170.50;;;26.87;60.07
6393;BME280;3229;42.674;23.282;2023-06-22T05:56:03;95173.38;;;27.20;59.12
6393;BME280;3229;42.674;23.282;2023-06-22T05:58:29;95165.47;;;27.44;58.21
6393;BME280;3229;42.674;23.282;2023-06-22T06:00:56;95166.78;;;27.70;58.07
6393;BME280;3229;42.674;23.282;2023-06-22T06:03:24;95164.47;;;28.14;57.13
6393;BME280;3229;42.674;23.282;2023-06-22T06:05:54;95169.97;;;28.58;55.10
6393;BME280;3229;42.674;23.282;2023-06-22T06:08:20;95166.16;;;28.82;54.76
6393;BME280;3229;42.674;23.282;2023-06-22T06:10:48;95160.50;;;29.07;53.68
6393;BME280;3229;42.674;23.282;2023-06-22T06:13:15;95161.69;;;29.16;52.50
6393;BME280;3229;42.674;23.282;2023-06-22T06:15:42;95151.91;;;29.34;52.35
6393;BME280;3229;42.674;23.282;2023-06-22T06:18:09;95148.69;;;29.32;51.65
6393;BME280;3229;42.674;23.282;2023-06-22T06:20:38;95149.78;;;29.14;52.24
6393;BME280;3229;42.674;23.282;2023-06-22T06:23:04;95153.16;;;29.09;52.53
6393;BME280;3229;42.674;23.282;2023-06-22T06:25:31;95145.56;;;29.13;52.92
6393;BME280;3229;42.674;23.282;2023-06-22T06:27:58;95144.78;;;29.34;52.60
6393;BME280;3229;42.674;23.282;2023-06-22T06:30:25;95060.59;;;29.00;51.25
6393;BME280;3229;42.674;23.282;2023-06-22T06:32:52;95154.81;;;29.54;51.75
6393;BME280;3229;42.674;23.282;2023-06-22T06:35:19;95150.41;;;29.82;50.72
6393;BME280;3229;42.674;23.282;2023-06-22T06:37:49;95144.13;;;29.88;51.11
6393;BME280;3229;42.674;23.282;2023-06-22T06:40:18;95145.56;;;29.73;51.16
6393;BME280;3229;42.674;23.282;2023-06-22T06:42:47;95137.13;;;29.98;51.00
6393;BME280;3229;42.674;23.282;2023-06-22T06:45:16;95115.97;;;30.47;49.56
6393;BME280;3229;42.674;23.282;2023-06-22T06:47:43;95142.25;;;30.96;48.89
6393;BME280;3229;42.674;23.282;2023-06-22T06:50:10;95140.38;;;30.92;48.76
6393;BME280;3229;42.674;23.282;2023-06-22T06:52:38;95133.75;;;30.94;48.83
6393;BME280;3229;42.674;23.282;2023-06-22T06:55:07;95114.41;;;30.84;48.83
6393;BME280;3229;42.674;23.282;2023-06-22T06:57:37;95128.97;;;30.91;48.76
6393;BME280;3229;42.674;23.282;2023-06-22T07:00:05;95134.00;;;30.88;49.40
6393;BME280;3229;42.674;23.282;2023-06-22T07:02:37;95134.34;;;31.02;48.30
6393;BME280;3229;42.674;23.282;2023-06-22T07:05:04;95129.78;;;30.92;48.32
6393;BME280;3229;42.674;23.282;2023-06-22T07:07:32;95133.47;;;30.91;48.67
6393;BME280;3229;42.674;23.282;2023-06-22T07:09:59;95132.13;;;30.83;48.25
6393;BME280;3229;42.674;23.282;2023-06-22T07:12:27;95134.19;;;30.81;49.09
6393;BME280;3229;42.674;23.282;2023-06-22T07:14:57;95129.81;;;30.97;49.15
6393;BME280;3229;42.674;23.282;2023-06-22T07:17:27;95137.09;;;31.22;48.47
6393;BME280;3229;42.674;23.282;2023-06-22T07:19:54;95130.06;;;31.38;47.36
6393;BME280;3229;42.674;23.282;2023-06-22T07:22:23;95128.63;;;31.20;48.02
6393;BME280;3229;42.674;23.282;2023-06-22T07:24:50;95130.56;;;30.87;48.20
6393;BME280;3229;42.674;23.282;2023-06-22T07:27:17;95132.91;;;30.84;49.63
6393;BME280;3229;42.674;23.282;2023-06-22T07:29:50;95126.72;;;31.10;48.81
6393;BME280;3229;42.674;23.282;2023-06-22T07:32:17;95131.06;;;31.27;48.46
6393;BME280;3229;42.674;23.282;2023-06-22T07:34:43;95125.03;;;31.31;48.67
6393;BME280;3229;42.674;23.282;2023-06-22T07:37:10;95138.44;;;31.24;48.24
6393;BME280;3229;42.674;23.282;2023-06-22T07:39:37;95123.19;;;31.37;48.71
6393;BME280;3229;42.674;23.282;2023-06-22T07:42:04;95135.16;;;31.60;47.80
6393;BME280;3229;42.674;23.282;2023-06-22T07:44:31;95130.13;;;31.53;48.26
6393;BME280;3229;42.674;23.282;2023-06-22T07:46:59;95130.47;;;31.72;48.39
6393;BME280;3229;42.674;23.282;2023-06-22T07:49:28;95110.19;;;31.88;47.98
6393;BME280;3229;42.674;23.282;2023-06-22T07:51:55;95140.13;;;32.24;47.44
6393;BME280;3229;42.674;23.282;2023-06-22T07:54:23;95142.06;;;32.39;47.49
6393;BME280;3229;42.674;23.282;2023-06-22T07:56:49;95138.59;;;32.49;47.42
6393;BME280;3229;42.674;23.282;2023-06-22T07:59:16;95134.63;;;32.56;47.39
6393;BME280;3229;42.674;23.282;2023-06-22T08:01:43;95129.06;;;32.68;47.13
6393;BME280;3229;42.674;23.282;2023-06-22T08:04:11;95128.78;;;32.59;46.82
6393;BME280;3229;42.674;23.282;2023-06-22T08:06:38;95128.22;;;32.32;46.81
6393;BME280;3229;42.674;23.282;2023-06-22T08:09:05;95121.09;;;32.17;47.98
6393;BME280;3229;42.674;23.282;2023-06-22T08:11:31;95122.13;;;32.16;48.22
6393;BME280;3229;42.674;23.282;2023-06-22T08:14:00;95114.50;;;32.45;48.56
6393;BME280;3229;42.674;23.282;2023-06-22T08:16:30;95120.59;;;32.45;47.64
6393;BME280;3229;42.674;23.282;2023-06-22T08:18:57;95112.94;;;32.39;47.96
6393;BME280;3229;42.674;23.282;2023-06-22T08:21:25;95119.22;;;32.33;48.68
6393;BME280;3229;42.674;23.282;2023-06-22T08:23:52;95120.34;;;32.52;48.63
6393;BME280;3229;42.674;23.282;2023-06-22T08:26:19;95106.28;;;32.57;48.06
6393;BME280;3229;42.674;23.282;2023-06-22T08:28:48;95109.19;;;32.76;47.58
6393;BME280;3229;42.674;23.282;2023-06-22T08:31:15;95108.91;;;32.77;47.09
6393;BME280;3229;42.674;23.282;2023-06-22T08:33:43;95108.13;;;32.66;46.97
6393;BME280;3229;42.674;23.282;2023-06-22T08:36:11;95112.06;;;32.33;46.97
6393;BME280;3229;42.674;23.282;2023-06-22T08:38:43;95109.97;;;32.30;48.18
6393;BME280;3229;42.674;23.282;2023-06-22T08:41:10;95112.91;;;32.44;48.19
6393;BME280;3229;42.674;23.282;2023-06-22T08:43:37;95112.38;;;32.52;46.85
6393;BME280;3229;42.674;23.282;2023-06-22T08:46:04;95117.69;;;32.62;47.31
6393;BME280;3229;42.674;23.282;2023-06-22T08:48:31;95111.31;;;32.58;47.08
6393;BME280;3229;42.674;23.282;2023-06-22T08:50:58;95108.69;;;32.48;47.12
6393;BME280;3229;42.674;23.282;2023-06-22T08:53:25;95109.44;;;32.33;46.47
6393;BME280;3229;42.674;23.282;2023-06-22T08:56:02;95103.63;;;32.26;47.33
6393;BME280;3229;42.674;23.282;2023-06-22T08:58:30;95102.53;;;32.07;45.47
6393;BME280;3229;42.674;23.282;2023-06-22T09:00:57;95090.31;;;31.85;45.23
6393;BME280;3229;42.674;23.282;2023-06-22T09:03:26;95090.88;;;31.92;46.34
6393;BME280;3229;42.674;23.282;2023-06-22T09:05:53;95088.22;;;32.08;46.37
6393;BME280;3229;42.674;23.282;2023-06-22T09:08:20;95076.09;;;32.22;44.81
6393;BME280;3229;42.674;23.282;2023-06-22T09:10:46;95085.31;;;32.30;45.69
6393;BME280;3229;42.674;23.282;2023-06-22T09:13:15;95089.84;;;32.34;45.47
6393;BME280;3229;42.674;23.282;2023-06-22T09:15:42;95091.44;;;32.35;43.53
6393;BME280;3229;42.674;23.282;2023-06-22T09:18:10;95088.78;;;32.25;43.76
6393;BME280;3229;42.674;23.282;2023-06-22T09:20:37;95088.81;;;32.30;43.13
6393;BME280;3229;42.674;23.282;2023-06-22T09:23:04;95086.41;;;32.23;42.41
6393;BME280;3229;42.674;23.282;2023-06-22T09:25:31;95090.09;;;32.12;42.54
6393;BME280;3229;42.674;23.282;2023-06-22T09:27:58;95095.91;;;32.09;43.03
6393;BME280;3229;42.674;23.282;2023-06-22T09:30:26;95091.97;;;32.27;42.38
6393;BME280;3229;42.674;23.282;2023-06-22T09:32:55;95098.34;;;32.41;41.86
6393;BME280;3229;42.674;23.282;2023-06-22T09:35:22;95101.53;;;32.43;42.17
6393;BME280;3229;42.674;23.282;2023-06-22T09:37:49;95042.72;;;31.95;42.13
6393;BME280;3229;42.674;23.282;2023-06-22T09:40:16;95099.38;;;32.20;42.94
6393;BME280;3229;42.674;23.282;2023-06-22T09:42:43;95100.66;;;32.12;42.99
6393;BME280;3229;42.674;23.282;2023-06-22T09:45:10;95092.44;;;31.88;43.15
6393;BME280;3229;42.674;23.282;2023-06-22T09:47:38;95021.38;;;31.29;43.88
6393;BME280;3229;42.674;23.282;2023-06-22T09:50:05;95087.13;;;31.78;44.62
6393;BME280;3229;42.674;23.282;2023-06-22T09:52:33;95088.69;;;31.79;44.68
6393;BME280;3229;42.674;23.282;2023-06-22T09:54:59;95083.13;;;31.81;44.70
6393;BME280;3229;42.674;23.282;2023-06-22T09:57:26;95079.69;;;31.80;45.32
6393;BME280;3229;42.674;23.282;2023-06-22T09:59:53;95082.84;;;31.82;44.82
6393;BME280;3229;42.674;23.282;2023-06-22T10:02:20;95080.69;;;31.54;44.88
6393;BME280;3229;42.674;23.282;2023-06-22T10:04:49;95079.78;;;31.28;45.62
6393;BME280;3229;42.674;23.282;2023-06-22T10:07:15;95072.56;;;31.13;46.45
6393;BME280;3229;42.674;23.282;2023-06-22T10:09:42;95079.41;;;31.09;46.59
6393;BME280;3229;42.674;23.282;2023-06-22T10:12:09;95072.84;;;31.21;46.68
6393;BME280;3229;42.674;23.282;2023-06-22T10:14:36;95073.19;;;31.30;45.54
6393;BME280;3229;42.674;23.282;2023-06-22T10:17:03;95070.59;;;31.35;45.02
6393;BME280;3229;42.674;23.282;2023-06-22T10:19:32;95067.97;;;31.45;45.68
6393;BME280;3229;42.674;23.282;2023-06-22T10:22:01;95073.03;;;31.62;44.37
6393;BME280;3229;42.674;23.282;2023-06-22T10:24:28;95066.47;;;31.70;43.30
6393;BME280;3229;42.674;23.282;2023-06-22T10:26:56;95064.34;;;31.77;42.82
6393;BME280;3229;42.674;23.282;2023-06-22T10:29:23;95063.34;;;31.88;42.47
6393;BME280;3229;42.674;23.282;2023-06-22T10:31:49;95063.91;;;31.95;42.10
6393;BME280;3229;42.674;23.282;2023-06-22T10:34:16;95051.69;;;31.94;42.06
6393;BME280;3229;42.674;23.282;2023-06-22T10:36:43;95037.69;;;31.99;42.45
6393;BME280;3229;42.674;23.282;2023-06-22T10:39:14;95036.63;;;32.00;42.35
6393;BME280;3229;42.674;23.282;2023-06-22T10:41:41;95054.91;;;32.17;41.74
6393;BME280;3229;42.674;23.282;2023-06-22T10:44:07;95038.50;;;32.15;41.90
6393;BME280;3229;42.674;23.282;2023-06-22T10:46:36;95052.78;;;32.29;42.21
6393;BME280;3229;42.674;23.282;2023-06-22T10:49:03;95051.97;;;32.03;42.02
6393;BME280;3229;42.674;23.282;2023-06-22T10:51:30;95040.84;;;31.86;42.58
6393;BME280;3229;42.674;23.282;2023-06-22T10:53:57;95044.56;;;31.90;43.33
6393;BME280;3229;42.674;23.282;2023-06-22T10:56:26;95032.94;;;31.96;43.25
6393;BME280;3229;42.674;23.282;2023-06-22T10:58:53;95043.25;;;32.13;42.70
6393;BME280;3229;42.674;23.282;2023-06-22T11:01:20;95040.59;;;32.23;41.72
6393;BME280;3229;42.674;23.282;2023-06-22T11:03:47;95045.09;;;32.33;41.95
6393;BME280;3229;42.674;23.282;2023-06-22T11:06:14;95036.38;;;32.42;41.60
6393;BME280;3229;42.674;23.282;2023-06-22T11:08:44;95034.25;;;32.34;41.71
6393;BME280;3229;42.674;23.282;2023-06-22T11:11:10;95039.56;;;32.39;42.53
6393;BME280;3229;42.674;23.282;2023-06-22T11:13:38;95034.28;;;32.39;42.50
6393;BME280;3229;42.674;23.282;2023-06-22T11:16:05;95033.72;;;32.32;41.41
6393;BME280;3229;42.674;23.282;2023-06-22T11:18:32;95009.91;;;32.07;42.22
6393;BME280;3229;42.674;23.282;2023-06-22T11:20:59;95026.81;;;32.21;42.50
6393;BME280;3229;42.674;23.282;2023-06-22T11:23:26;95030.53;;;32.20;42.58
6393;BME280;3229;42.674;23.282;2023-06-22T11:25:53;95023.94;;;32.22;41.90
6393;BME280;3229;42.674;23.282;2023-06-22T11:28:20;95025.25;;;32.25;42.08
6393;BME280;3229;42.674;23.282;2023-06-22T11:30:48;95016.50;;;32.25;41.61
6393;BME280;3229;42.674;23.282;2023-06-22T11:33:15;94902.72;;;31.43;42.13
6393;BME280;3229;42.674;23.282;2023-06-22T11:35:42;95019.41;;;32.08;42.87
6393;BME280;3229;42.674;23.282;2023-06-22T11:38:09;95013.34;;;31.97;43.96
6393;BME280;3229;42.674;23.282;2023-06-22T11:40:36;95014.41;;;31.96;44.85
6393;BME280;3229;42.674;23.282;2023-06-22T11:43:02;95028.41;;;31.86;44.62
6393;BME280;3229;42.674;23.282;2023-06-22T11:45:29;95019.38;;;31.77;43.69
6393;BME280;3229;42.674;23.282;2023-06-22T11:47:57;95020.72;;;31.75;43.54
6393;BME280;3229;42.674;23.282;2023-06-22T11:50:24;95010.38;;;31.73;44.81
6393;BME280;3229;42.674;23.282;2023-06-22T11:52:51;95004.84;;;31.69;46.51
6393;BME280;3229;42.674;23.282;2023-06-22T11:55:20;95008.25;;;31.65;49.16
6393;BME280;3229;42.674;23.282;2023-06-22T11:57:55;95010.59;;;31.46;48.52
6393;BME280;3229;42.674;23.282;2023-06-22T12:00:24;95010.59;;;31.41;49.28
6393;BME280;3229;42.674;23.282;2023-06-22T12:02:51;95017.72;;;31.35;50.44
6393;BME280;3229;42.674;23.282;2023-06-22T12:05:19;95020.09;;;31.32;51.55
6393;BME280;3229;42.674;23.282;2023-06-22T12:07:47;95007.28;;;31.08;52.79
6393;BME280;3229;42.674;23.282;2023-06-22T12:10:15;95031.88;;;31.14;53.21
6393;BME280;3229;42.674;23.282;2023-06-22T12:12:42;95029.72;;;31.06;53.23
6393;BME280;3229;42.674;23.282;2023-06-22T12:15:10;95031.75;;;30.83;53.18
6393;BME280;3229;42.674;23.282;2023-06-22T12:17:39;95030.56;;;30.69;53.80
6393;BME280;3229;42.674;23.282;2023-06-22T12:20:07;95037.88;;;30.57;54.70
6393;BME280;3229;42.674;23.282;2023-06-22T12:22:41;95033.31;;;30.42;55.15
6393;BME280;3229;42.674;23.282;2023-06-22T12:25:08;95044.78;;;30.26;56.88
6393;BME280;3229;42.674;23.282;2023-06-22T12:27:36;95045.41;;;30.06;59.21
6393;BME280;3229;42.674;23.282;2023-06-22T12:30:04;95041.19;;;29.78;61.94
6393;BME280;3229;42.674;23.282;2023-06-22T12:32:33;95037.47;;;29.52;64.16
6393;BME280;3229;42.674;23.282;2023-06-22T12:35:00;95054.16;;;29.13;65.00
6393;BME280;3229;42.674;23.282;2023-06-22T12:37:27;95042.09;;;28.79;65.23
6393;BME280;3229;42.674;23.282;2023-06-22T12:39:57;95052.13;;;28.43;67.67
6393;BME280;3229;42.674;23.282;2023-06-22T12:42:24;95041.56;;;28.09;69.32
6393;BME280;3229;42.674;23.282;2023-06-22T12:44:52;95037.88;;;27.77;71.16
6393;BME280;3229;42.674;23.282;2023-06-22T12:47:18;95042.75;;;27.56;71.11
6393;BME280;3229;42.674;23.282;2023-06-22T12:49:46;95055.03;;;27.39;72.53
6393;BME280;3229;42.674;23.282;2023-06-22T12:52:12;95044.38;;;27.17;73.80
6393;BME280;3229;42.674;23.282;2023-06-22T12:54:39;95055.19;;;27.09;73.88
6393;BME280;3229;42.674;23.282;2023-06-22T12:57:07;95075.31;;;27.03;74.52
6393;BME280;3229;42.674;23.282;2023-06-22T12:59:34;95072.22;;;26.94;73.49
6393;BME280;3229;42.674;23.282;2023-06-22T13:02:01;95069.81;;;26.81;72.82
6393;BME280;3229;42.674;23.282;2023-06-22T13:04:28;95074.75;;;26.77;74.12
6393;BME280;3229;42.674;23.282;2023-06-22T13:06:55;95086.16;;;26.71;74.74
6393;BME280;3229;42.674;23.282;2023-06-22T13:09:21;95083.06;;;26.74;73.33
6393;BME280;3229;42.674;23.282;2023-06-22T13:11:48;95073.97;;;26.77;72.79
6393;BME280;3229;42.674;23.282;2023-06-22T13:14:16;95079.53;;;26.81;72.22